Saturday, May 26, 2018, 8:13 AM EDT
Back to Local

KAGC, Pittsburgh Allegheny Cty.

Location: West Mifflin, PA, United States Lat: 40.35
Local Time: 8:13 AM EDT (12:13 GMT) Lon: -79.917
Time Zone: US/Eastern Elev: 1253 ft

Show me the last for .
Show Decoded

2018-05-26 07:53 METAR KAGC 261153Z 20006KT 10SM CLR 21/19 A2989 RMK AO2 SLP116 70027 T02060189
                 10206 20183 53005 =
2018-05-26 06:53 METAR KAGC 261053Z 18006KT 9SM CLR 19/18 A2988 RMK AO2 SLP113 T01890183 =
2018-05-26 05:53 METAR KAGC 260953Z 19005KT 10SM CLR 18/18 A2987 RMK AO2 SLP111 T01830178 =
2018-05-26 04:53 METAR KAGC 260853Z 18007KT 10SM FEW055 19/18 A2987 RMK AO2 SLP111 T01890178
                 55000 =
2018-05-26 03:53 METAR KAGC 260753Z 18005KT 10SM FEW070 19/18 A2987 RMK AO2 SLP110 T01940183 =
2018-05-26 02:53 METAR KAGC 260653Z 17005KT 10SM CLR 19/19 A2987 RMK AO2 SLP110 T01940189 =
2018-05-26 01:53 METAR KAGC 260553Z 18007KT 10SM SCT037 BKN060 21/19 A2987 RMK AO2 PK WND
                 26029/0534 LTG DSNT E AND SE RAB16E48 SLP111 P0027 60027 T02060189 10267 20206
                 56008 =
2018-05-26 00:53 METAR KAGC 260453Z 15005KT 10SM SCT065 BKN080 BKN095 22/17 A2988 RMK AO2 SLP113
                 T02170172 402890133 =
2018-05-25 23:53 METAR KAGC 260353Z 20004KT 10SM CLR 24/16 A2988 RMK AO2 SLP113 T02390161 =
2018-05-25 22:53 METAR KAGC 260253Z 23004KT 10SM CLR 24/16 A2990 RMK AO2 SLP118 T02440161 53004 =
2018-05-25 21:53 METAR KAGC 260153Z AUTO 24004KT 10SM CLR 25/16 A2989 RMK AO2 SLP118 T02500156 =
2018-05-25 20:53 METAR KAGC 260053Z 27004KT 10SM CLR 26/16 A2989 RMK AO2 SLP116 T02560156 =
2018-05-25 19:53 METAR KAGC 252353Z 27006KT 10SM CLR 27/16 A2989 RMK AO2 SLP116 T02670156 10289
                 20267 56011 =
2018-05-25 18:53 METAR KAGC 252253Z 27008KT 240V310 10SM BKN060 28/16 A2989 RMK AO2 SLP118
                 T02780161 =
2018-05-25 17:53 METAR KAGC 252153Z 27006KT 10SM SCT060 28/17 A2990 RMK AO2 SLP122 T02830167 =
2018-05-25 16:53 METAR KAGC 252053Z 22009G16KT 10SM FEW065 28/16 A2992 RMK AO2 SLP129 T02830156
                 57018 =
2018-05-25 15:53 METAR KAGC 251953Z 25009G19KT 10SM FEW065 29/16 A2994 RMK AO2 SLP134 T02890161 =
2018-05-25 14:53 METAR KAGC 251853Z VRB06G15KT 10SM BKN055 27/17 A2996 RMK AO2 SLP140 T02720167 =
2018-05-25 13:53 METAR KAGC 251753Z VRB05KT 10SM SCT046 SCT060 27/18 A2998 RMK AO2 SLP147
                 T02670178 10283 20167 56018 =
2018-05-25 12:53 METAR KAGC 251653Z AUTO 10SM CLR 27/18 A2999 RMK AO2 SLP151 T02670178 =
2018-05-25 11:53 METAR KAGC 251553Z 23003KT 10SM CLR 25/18 A3001 RMK AO2 SLP159 T02500178 =
2018-05-25 10:53 METAR KAGC 251453Z 22007KT 10SM CLR 24/18 A3003 RMK AO2 SLP165 T02440178 58009 =
2018-05-25 09:53 METAR KAGC 251353Z 21008KT 10SM CLR 22/16 A3005 RMK AO2 SLP171 T02220161 =
2018-05-25 08:53 METAR KAGC 251253Z 20006KT 10SM CLR 19/14 A3006 RMK AO2 SLP174 T01940144 =

Support USWX by starting your Amazon purchase here.